• Join FlightAware (Why Join?)
  • Login
  • US Flag 
Trick or treat! (Boo!!) 
05:41PM EDT


 

Airport Tracker/Info


-or-


 

Live Flight TrackerFlight Track Log ✈ SWA1017 ✈ 24-May-2013 ✈ KAUS - KDAL

Flight Track Log - Related Links

Times and Time Zones

All times are in EDT time to prevent confusion due to time zone crossing. See the SWA1017 flight status page for this flight to view local times or setup timezone preferences in your user account.

Time Position Orientation Groundspeed Altitude Reporting Facility
EDT Latitude Longitude Course Direction KTS MPH feet Rate Location/Type
08:00PM 30.0900 -97.7136 280° West 196 226 5,400  Level Houston Center
08:01PM 30.0669 -97.7736 246° West 256 295 8,500 2,760 Climbing Houston Center
08:02PM 30.1358 -97.8306 324° Northwest 312 359 11,200 3,000 Climbing Houston Center
08:03PM 30.2153 -97.9097 319° Northwest 346 398 14,800 3,240 Climbing Houston Center
08:04PM 30.3167 -98.3070 270° West  Level FlightAware Approximate
08:04PM 30.2356 -98.0161 282° West 338 389 18,000  Level Houston Center
08:05PM 30.3380 -98.4136 280° West  Level FlightAware Approximate
08:05PM 30.2592 -98.1322 283° West 345 397 20,300  Level Houston Center
08:06PM 30.2831 -98.2486 283° West 368 423 22,000 780 Climbing Houston Center
08:07PM 30.3086 -98.3728 283° West 388 447 22,000  Level Houston Center
08:08PM 30.3372 -98.5094 284° West 409 471 22,000  Level Houston Center
08:09PM 30.3636 -98.6422 283° West 417 480 22,000  Level Houston Center
08:10PM 30.3906 -98.7744 283° West 418 481 22,000  Level Houston Center
08:11PM 30.4361 -98.8981 293° West 423 487 22,000  Level Houston Center
08:12PM 30.5411 -98.9508 337° Northwest 410 472 22,000  Level Houston Center
08:13PM 30.6444 -98.9997 338° Northwest 399 459 22,000  Level Houston Center
08:14PM 30.7472 -99.0472 338° Northwest 395 455 22,100 480 Climbing Houston Center
08:15PM 30.8519 -99.0956 338° Northwest 399 459 23,000 1,200 Climbing Houston Center
08:16PM 30.9578 -99.1450 338° Northwest 403 464 24,700 1,500 Climbing Houston Center
08:17PM 31.0761 -99.1997 338° Northwest 417 480 26,200 1,380 Climbing Houston Center
08:18PM 31.1917 -99.2539 338° Northwest 442 509 27,600 1,560 Climbing Houston Center
08:19PM 31.3100 -99.3092 338° Northwest 455 524 29,500 2,100 Climbing Houston Center
08:20PM 31.4400 -99.3700 338° Northwest 446 513 32,000 1,200 Climbing Houston Center
08:21PM 31.5553 -99.4239 338° Northwest 440 506 32,000  Level Houston Center
08:22PM 31.6725 -99.4769 339° North 445 512 32,000  Level Houston Center
08:24PM 31.7889 -99.5331 338° Northwest 441 507 32,000  Level Houston Center
08:25PM 31.9050 -99.5878 338° Northwest 447 514 32,000  Level Houston Center
08:26PM 32.0222 -99.6431 338° Northwest 453 521 32,000  Level Houston Center
08:27PM 32.1597 -99.7092 338° Northwest 450 518 32,000  Level Houston Center
08:28PM 32.2767 -99.7653 338° Northwest 451 519 32,000  Level Houston Center
08:29PM 32.4017 -99.7878 351° North 437 503 32,000  Level Fort Worth Center
08:30PM 32.5117 -99.7094 31° Northeast 421 484 32,000 -120 Level Fort Worth Center
08:31PM 32.6239 -99.6283 31° Northeast 431 496 31,800 -540 Descending Fort Worth Center
08:32PM 32.7358 -99.5497 31° Northeast 454 522 31,000 -420 Descending Fort Worth Center
08:33PM 32.8478 -99.4683 31° Northeast 468 539 31,000  Level Fort Worth Center
08:34PM 32.9414 -99.3617 44° Northeast 468 539 31,000  Level Fort Worth Center
08:35PM 33.0328 -99.2519 45° Northeast 461 531 31,000  Level Fort Worth Center
08:36PM 33.1264 -99.1325 47° Northeast 467 537 31,000  Level Fort Worth Center
08:37PM 33.2175 -99.0200 46° Northeast 473 544 31,000  Level Fort Worth Center
08:38PM 33.3067 -98.9072 47° Northeast 473 544 31,000  Level Fort Worth Center
08:39PM 33.4019 -98.7944 45° Northeast 473 544 31,000 -300 Level Fort Worth Center
08:40PM 33.4969 -98.6814 45° Northeast 473 544 30,400 -780 Descending Fort Worth Center
08:41PM 33.5814 -98.5803 45° Northeast 478 550 29,500 -1,020 Descending Fort Worth Center
08:42PM 33.6742 -98.4642 46° Northeast 478 550 28,400 -1,680 Descending Fort Worth Center
08:43PM 33.7692 -98.3531 44° Northeast 473 544 26,200 -2,040 Descending Fort Worth Center
08:44PM 33.8450 -98.2364 52° Northeast 466 536 24,400 -1,140 Descending Fort Worth Center
08:45PM 33.8500 -98.0939 88° East 424 488 24,000 -240 Descending Fort Worth Center
08:46PM 33.8194 -97.9586 105° East 398 458 24,000 -300 Level Fort Worth Center
08:47PM 33.7678 -97.8158 113° Southeast 404 465 23,400 -900 Descending Fort Worth Center
08:48PM 33.7181 -97.6981 117° Southeast 404 465 22,200 -1,620 Descending Fort Worth Center
08:49PM 33.6722 -97.5831 116° Southeast 384 442 20,200 -2,040 Descending Fort Worth Center
08:50PM 33.6308 -97.4808 116° Southeast 379 436 18,200 -2,100 Descending Fort Worth Center
08:51PM 33.5494 -97.3986 140° Southeast 375 432 16,000 -1,980 Descending Fort Worth Center
08:52PM 33.4678 -97.3164 140° Southeast 370 426 14,300 -1,560 Descending Fort Worth Center
08:53PM 33.4136 -97.2567 137° Southeast 318 366 12,900 -1,740 Descending Fort Worth Center
08:53PM 33.3667 -97.2000 135° Southeast 286 329 11,400 -1,920 Descending Dallas / Fort Worth TRACON
08:54PM 33.3833 -97.1000 79° East 294 338 9,700 -1,620 Descending Dallas / Fort Worth TRACON
08:55PM 33.3861 -97.0775 82° East 262 302 9,300 -1,260 Descending Fort Worth Center
08:56PM 33.3922 -96.9981 85° East 274 315 8,100 -1,680 Descending Fort Worth Center
08:57PM 33.4022 -96.8933 83° East 274 315 6,000 -1,860 Descending Fort Worth Center
08:58PM 33.3644 -96.8339 127° Southeast 246 283 4,400 -1,020 Descending Fort Worth Center
08:59PM 33.3058 -96.7919 149° Southeast 218 251 4,000 -300 Descending Fort Worth Center
09:00PM 33.2494 -96.8097 195° South 222 255 3,800 -480 Descending Fort Worth Center
09:01PM 33.1764 -96.8328 195° South 240 276 3,100 -360 Descending Fort Worth Center
09:02PM 33.1097 -96.8531 194° South 240 276 3,100  Level Fort Worth Center
09:02PM 33.0667 -96.8667 195° South 239 275 3,100  Level Dallas / Fort Worth TRACON
09:03PM 33.0000 -96.8833 192° South 207 238 3,100 -420 Level Dallas / Fort Worth TRACON
09:04PM 32.9500 -96.9000 196° South 211 243 2,300 -600 Descending Dallas / Fort Worth TRACON
09:05PM 32.9000 -96.9000 180° South 167 192 1,900 -720 Descending Dallas / Fort Worth TRACON
09:06PM 32.8667 -96.8667 140° Southeast 154 177 900 -1,020 Descending Dallas / Fort Worth TRACON
09:08PM 32.8471 -96.8518 159° South  Level Estimated
09:15PM 32.8471 -96.8518 159° South  Level Estimated